Time;durP1;ratioP1;P1;durP2;ratioP2;P2;SDS_P1;SDS_P2;PMS_P1;PMS_P2;Temp;Humidity;BMP_temperature;BMP_pressure;BME280_temperature;BME280_humidity;BME280_pressure;Samples;Min_cycle;Max_cycle;Signal;HPM_P1;HPM_P2
2023/04/11 00:01:52;;;;;;;12.32;3.20;;;7.70;99.90;;;;;;5060490;28;21036;-71
2023/04/11 00:04:19;;;;;;;10.18;2.33;;;7.70;99.90;;;;;;5041713;28;20192;-71
2023/04/11 00:06:46;;;;;;;9.60;1.95;;;7.70;99.90;;;;;;5061768;28;20051;-71
2023/04/11 00:09:12;;;;;;;10.50;2.15;;;7.70;99.90;;;;;;5058746;28;20123;-72
2023/04/11 00:11:38;;;;;;;7.55;1.75;;;7.60;99.90;;;;;;5074898;28;20808;-72
2023/04/11 00:14:04;;;;;;;11.30;1.95;;;7.60;99.90;;;;;;5080390;28;20051;-71
2023/04/11 00:16:32;;;;;;;7.85;1.88;;;7.60;99.90;;;;;;5076194;28;20048;-72
2023/04/11 00:18:59;;;;;;;7.97;1.63;;;7.60;99.90;;;;;;5072786;28;20409;-73
2023/04/11 00:21:25;;;;;;;8.05;1.67;;;7.60;99.90;;;;;;5053913;28;20035;-72
2023/04/11 00:23:54;;;;;;;5.70;1.30;;;7.60;99.90;;;;;;5040776;28;20051;-73
2023/04/11 00:26:20;;;;;;;7.97;2.33;;;7.50;99.90;;;;;;5054826;28;20043;-73
2023/04/11 00:28:47;;;;;;;6.05;1.50;;;7.50;99.90;;;;;;5073368;28;20047;-73
2023/04/11 00:31:13;;;;;;;7.68;1.63;;;7.50;99.90;;;;;;5090442;28;20036;-72
2023/04/11 00:33:39;;;;;;;7.20;2.00;;;7.50;99.90;;;;;;5053975;28;20518;-73
2023/04/11 00:36:05;;;;;;;5.40;1.50;;;7.40;99.90;;;;;;5059366;28;20053;-73
2023/04/11 00:38:31;;;;;;;6.72;1.90;;;7.40;99.90;;;;;;5077110;28;20483;-75
2023/04/11 00:40:58;;;;;;;8.25;1.90;;;7.40;99.90;;;;;;5059960;28;20048;-75
2023/04/11 00:43:24;;;;;;;7.63;1.58;;;7.30;99.90;;;;;;5055444;28;20468;-75
2023/04/11 00:45:50;;;;;;;8.18;2.38;;;7.30;99.90;;;;;;5074549;28;20052;-74
2023/04/11 00:48:16;;;;;;;9.35;1.95;;;7.30;99.90;;;;;;5073600;28;20036;-74
2023/04/11 00:50:42;;;;;;;7.43;1.83;;;7.30;99.90;;;;;;5073043;28;20757;-74
2023/04/11 00:53:12;;;;;;;8.05;1.95;;;7.30;99.90;;;;;;5056461;28;20044;-74
2023/04/11 00:55:38;;;;;;;5.57;1.77;;;7.30;99.90;;;;;;5073468;28;20070;-74
2023/04/11 00:58:06;;;;;;;9.88;2.60;;;7.30;99.90;;;;;;5056625;28;20825;-72
2023/04/11 01:00:34;;;;;;;5.75;2.03;;;7.30;99.90;;;;;;5071928;28;20036;-71
2023/04/11 01:03:00;;;;;;;8.32;2.13;;;7.30;99.90;;;;;;5057515;28;20052;-72
2023/04/11 01:05:28;;;;;;;8.95;2.40;;;7.20;99.90;;;;;;5057351;28;20044;-72
2023/04/11 01:07:54;;;;;;;9.55;2.30;;;7.20;99.90;;;;;;5093588;28;20086;-72
2023/04/11 01:10:21;;;;;;;7.80;2.72;;;7.20;99.90;;;;;;5076690;28;20735;-72
2023/04/11 01:12:48;;;;;;;9.57;2.90;;;7.20;99.90;;;;;;5071847;28;20101;-71
2023/04/11 01:15:14;;;;;;;10.18;2.72;;;7.20;99.90;;;;;;5071361;28;20143;-74
2023/04/11 01:17:42;;;;;;;11.52;3.50;;;7.20;99.90;;;;;;5055486;28;20047;-71
2023/04/11 01:20:09;;;;;;;12.05;3.22;;;7.20;99.90;;;;;;5078578;28;20049;-71
2023/04/11 01:22:37;;;;;;;12.98;3.28;;;7.20;99.90;;;;;;5058124;28;20052;-72
2023/04/11 01:25:03;;;;;;;10.40;3.25;;;7.30;99.90;;;;;;5039523;28;21620;-72
2023/04/11 01:27:32;;;;;;;10.07;3.05;;;7.20;99.90;;;;;;5056370;28;20578;-72
2023/04/11 01:30:01;;;;;;;9.65;3.10;;;7.20;99.90;;;;;;5080816;28;21247;-72
2023/04/11 01:32:27;;;;;;;10.98;3.10;;;7.20;99.90;;;;;;5067456;28;20028;-72
2023/04/11 01:34:56;;;;;;;15.80;3.97;;;7.20;99.90;;;;;;5097324;27;20913;-71
2023/04/11 01:37:21;;;;;;;11.60;3.42;;;7.20;99.90;;;;;;5058275;28;20048;-71
2023/04/11 01:39:47;;;;;;;8.00;3.13;;;7.20;99.90;;;;;;5048545;28;21226;-72
2023/04/11 01:42:14;;;;;;;11.85;3.75;;;7.10;99.90;;;;;;5078492;28;20066;-72
2023/04/11 01:44:41;;;;;;;13.40;3.85;;;7.10;99.90;;;;;;5080162;28;20132;-72
2023/04/11 01:47:07;;;;;;;15.32;3.50;;;7.10;99.90;;;;;;5043040;28;20040;-71
2023/04/11 01:49:33;;;;;;;12.52;3.35;;;7.10;99.90;;;;;;5079380;28;20087;-72
2023/04/11 01:51:59;;;;;;;12.18;2.92;;;7.10;99.90;;;;;;5078422;28;20083;-72
2023/04/11 01:54:24;;;;;;;9.70;2.85;;;7.10;99.90;;;;;;5046240;28;21864;-72
2023/04/11 01:56:51;;;;;;;16.40;4.07;;;7.10;99.90;;;;;;5058589;28;20051;-72
2023/04/11 01:59:16;;;;;;;12.88;2.97;;;7.10;99.90;;;;;;5060670;28;20048;-72
2023/04/11 02:01:43;;;;;;;11.85;3.08;;;7.20;99.90;;;;;;5074273;28;20054;-72
2023/04/11 02:04:10;;;;;;;11.48;3.30;;;7.20;99.90;;;;;;5077118;28;20063;-73
2023/04/11 02:06:37;;;;;;;10.85;3.45;;;7.30;99.90;;;;;;5079960;28;20044;-73
2023/04/11 02:09:03;;;;;;;8.77;2.90;;;7.30;99.90;;;;;;5045631;28;20051;-72
2023/04/11 02:11:32;;;;;;;13.80;3.33;;;7.30;99.90;;;;;;5055247;28;20044;-73
2023/04/11 02:13:58;;;;;;;13.30;3.47;;;7.40;99.90;;;;;;5078873;28;20044;-72
2023/04/11 02:16:24;;;;;;;11.10;3.25;;;7.30;99.90;;;;;;5083471;28;20051;-75
2023/04/11 02:18:52;;;;;;;9.85;3.58;;;7.40;99.90;;;;;;5066516;28;20049;-73
2023/04/11 02:21:18;;;;;;;15.10;6.47;;;7.30;99.90;;;;;;5064401;28;20118;-72
2023/04/11 02:23:44;;;;;;;14.30;6.15;;;7.40;99.90;;;;;;5066324;28;20129;-73
2023/04/11 02:26:10;;;;;;;10.88;3.70;;;7.40;99.90;;;;;;5081249;28;20043;-73
2023/04/11 02:28:35;;;;;;;10.23;2.80;;;7.40;99.90;;;;;;5060417;28;20636;-73
2023/04/11 02:31:02;;;;;;;4.07;1.20;;;7.40;99.90;;;;;;5081555;28;20053;-73
2023/04/11 02:33:28;;;;;;;6.30;1.40;;;7.40;99.90;;;;;;5083252;28;20391;-73
2023/04/11 02:35:54;;;;;;;6.55;2.05;;;7.30;99.90;;;;;;5064448;28;20055;-73
2023/04/11 02:38:20;;;;;;;8.38;2.20;;;7.30;99.90;;;;;;5096523;27;20263;-73
2023/04/11 02:40:46;;;;;;;4.63;1.55;;;7.20;99.90;;;;;;5046411;28;20040;-73
2023/04/11 02:43:12;;;;;;;3.65;1.17;;;7.10;99.90;;;;;;5079270;28;20051;-73
2023/04/11 02:45:38;;;;;;;5.35;1.27;;;7.10;99.90;;;;;;5061732;28;20403;-72
2023/04/11 02:48:04;;;;;;;3.47;1.23;;;7.00;99.90;;;;;;5062200;28;20051;-73
2023/04/11 02:50:30;;;;;;;5.15;1.25;;;7.00;99.90;;;;;;5054182;28;20503;-73
2023/04/11 02:52:56;;;;;;;6.35;1.40;;;7.00;99.90;;;;;;5081550;28;20148;-72
2023/04/11 02:55:22;;;;;;;4.20;1.65;;;7.00;99.90;;;;;;5059330;28;20279;-72
2023/04/11 02:57:49;;;;;;;4.00;1.02;;;7.00;99.90;;;;;;5081447;28;20055;-72
2023/04/11 03:00:18;;;;;;;6.05;1.40;;;7.00;99.90;;;;;;5078343;28;20692;-72
2023/04/11 03:02:44;;;;;;;5.40;1.20;;;7.00;99.90;;;;;;5078564;28;20104;-72
2023/04/11 03:05:10;;;;;;;5.78;1.45;;;7.00;99.90;;;;;;5046843;28;20047;-72
2023/04/11 03:07:37;;;;;;;7.90;1.70;;;7.00;99.90;;;;;;5059479;28;20097;-73
2023/04/11 03:10:06;;;;;;;6.20;1.70;;;7.00;99.90;;;;;;5078441;28;20288;-72
2023/04/11 03:12:32;;;;;;;5.57;2.23;;;6.90;99.90;;;;;;5061190;28;20043;-72
2023/04/11 03:14:58;;;;;;;7.55;2.30;;;7.00;99.90;;;;;;5043776;28;21039;-74
2023/04/11 03:17:24;;;;;;;7.20;2.10;;;7.00;99.90;;;;;;5059100;28;20417;-75
2023/04/11 03:19:50;;;;;;;4.00;1.52;;;7.00;99.90;;;;;;5080386;28;20099;-72
2023/04/11 03:22:16;;;;;;;5.50;1.30;;;7.00;99.90;;;;;;5076108;28;20667;-72
2023/04/11 03:24:45;;;;;;;5.05;1.67;;;7.10;99.90;;;;;;5047344;28;20055;-72
2023/04/11 03:27:11;;;;;;;7.20;1.90;;;7.10;99.90;;;;;;5077986;28;20055;-72
2023/04/11 03:29:37;;;;;;;8.35;2.28;;;7.10;99.90;;;;;;5080124;28;20822;-73
2023/04/11 03:32:03;;;;;;;6.32;2.75;;;7.10;99.90;;;;;;5044810;28;20049;-73
2023/04/11 03:34:28;;;;;;;9.48;2.85;;;7.10;99.90;;;;;;5045828;28;20040;-74
2023/04/11 03:36:54;;;;;;;6.47;2.30;;;7.20;99.90;;;;;;5058870;28;20294;-72
2023/04/11 03:39:20;;;;;;;8.63;3.13;;;7.30;99.90;;;;;;5079862;28;20043;-72
2023/04/11 03:41:49;;;;;;;9.50;3.42;;;7.30;99.90;;;;;;5063442;28;20075;-74
2023/04/11 03:44:15;;;;;;;10.27;3.40;;;7.30;99.90;;;;;;5045529;28;20055;-74
2023/04/11 03:46:41;;;;;;;14.88;3.35;;;7.40;99.90;;;;;;5059474;28;20055;-75
2023/04/11 03:49:07;;;;;;;12.20;3.38;;;7.40;99.90;;;;;;5060324;28;20151;-75
2023/04/11 03:51:33;;;;;;;12.48;3.30;;;7.50;99.90;;;;;;5042056;28;20044;-75
2023/04/11 03:53:59;;;;;;;9.82;3.10;;;7.50;99.90;;;;;;5063294;28;20078;-73
2023/04/11 03:56:27;;;;;;;16.83;3.78;;;7.60;99.90;;;;;;5075697;28;21409;-73
2023/04/11 03:58:53;;;;;;;12.52;2.97;;;7.60;99.90;;;;;;5098955;27;20040;-73
2023/04/11 04:01:19;;;;;;;12.45;2.97;;;7.70;99.90;;;;;;5088065;27;20096;-72
2023/04/11 04:03:48;;;;;;;10.43;3.08;;;7.70;99.90;;;;;;5046360;28;20426;-73
2023/04/11 04:06:13;;;;;;;12.55;2.97;;;7.80;99.90;;;;;;5058843;28;20054;-72
2023/04/11 04:08:39;;;;;;;12.23;3.10;;;7.80;99.90;;;;;;5045742;28;20047;-72
2023/04/11 04:11:05;;;;;;;16.58;4.95;;;7.80;99.90;;;;;;5043470;28;20032;-72
2023/04/11 04:13:31;;;;;;;14.13;3.72;;;7.80;99.90;;;;;;5043626;28;20032;-72
2023/04/11 04:15:58;;;;;;;11.20;3.25;;;7.80;99.90;;;;;;5062999;28;20509;-72
2023/04/11 04:18:24;;;;;;;12.77;3.25;;;7.80;99.90;;;;;;5075969;28;20059;-72
2023/04/11 04:20:50;;;;;;;10.20;2.97;;;7.80;99.90;;;;;;5043164;28;20059;-74
2023/04/11 04:23:16;;;;;;;11.15;3.35;;;7.90;99.90;;;;;;5045152;28;20130;-72
2023/04/11 04:25:47;;;;;;;10.60;3.10;;;7.90;99.90;;;;;;5080673;28;20047;-71
2023/04/11 04:28:13;;;;;;;13.82;3.63;;;7.90;99.90;;;;;;5094928;27;20047;-72
2023/04/11 04:30:39;;;;;;;13.20;3.65;;;7.90;99.90;;;;;;5082572;28;20051;-72
2023/04/11 04:33:05;;;;;;;9.50;3.35;;;7.90;99.90;;;;;;5062583;28;20409;-71
2023/04/11 04:35:30;;;;;;;13.77;3.55;;;7.90;99.90;;;;;;5043048;28;20090;-72
2023/04/11 04:37:56;;;;;;;13.98;3.13;;;7.90;99.90;;;;;;5060362;28;21350;-73
2023/04/11 04:40:22;;;;;;;12.27;3.65;;;7.90;99.90;;;;;;5078678;28;20036;-71
2023/04/11 04:42:57;;;;;;;13.52;3.75;;;7.90;99.90;;;;;;5077504;28;20123;-72
2023/04/11 04:45:23;;;;;;;12.80;3.70;;;7.90;99.90;;;;;;5091615;28;20441;-73
2023/04/11 04:47:48;;;;;;;11.65;3.60;;;7.90;99.90;;;;;;5076143;28;20048;-73
2023/04/11 04:50:15;;;;;;;9.57;3.58;;;7.80;99.90;;;;;;5044101;28;20977;-72
2023/04/11 04:52:40;;;;;;;9.43;3.30;;;7.80;99.90;;;;;;5063370;28;20679;-73
2023/04/11 04:55:07;;;;;;;10.98;3.15;;;7.80;99.90;;;;;;5074938;28;20881;-72
2023/04/11 04:57:33;;;;;;;11.02;3.58;;;7.80;99.90;;;;;;5059428;28;20102;-72
2023/04/11 04:59:59;;;;;;;9.40;3.65;;;7.80;99.90;;;;;;5060491;28;20118;-73
2023/04/11 05:02:27;;;;;;;10.02;3.42;;;7.80;99.90;;;;;;5060456;28;20339;-72
2023/04/11 05:04:54;;;;;;;12.43;3.95;;;7.80;99.90;;;;;;5081317;28;20070;-73
2023/04/11 05:07:19;;;;;;;13.10;3.33;;;7.80;99.90;;;;;;5082109;28;20504;-72
2023/04/11 05:09:45;;;;;;;11.27;3.38;;;7.80;99.90;;;;;;5080463;28;20043;-72
2023/04/11 05:12:12;;;;;;;8.82;3.20;;;7.70;99.90;;;;;;5077774;28;20503;-72
2023/04/11 05:14:38;;;;;;;11.38;3.65;;;7.80;99.90;;;;;;5082159;28;20427;-73
2023/04/11 05:17:04;;;;;;;13.35;4.13;;;7.80;99.90;;;;;;5063458;28;20048;-72
2023/04/11 05:19:31;;;;;;;12.30;3.58;;;7.80;99.90;;;;;;5065453;28;20478;-73
2023/04/11 05:21:56;;;;;;;11.43;3.33;;;7.80;99.90;;;;;;5073691;28;20259;-73
2023/04/11 05:24:22;;;;;;;11.88;3.63;;;7.80;99.90;;;;;;5059399;28;20179;-72
2023/04/11 05:26:48;;;;;;;11.77;3.17;;;7.80;99.90;;;;;;5078004;28;20082;-73
2023/04/11 05:29:14;;;;;;;14.55;3.95;;;7.80;99.90;;;;;;5046439;28;20405;-71
2023/04/11 05:31:40;;;;;;;7.22;2.42;;;7.80;99.90;;;;;;5060869;28;20093;-71
2023/04/11 05:34:06;;;;;;;10.63;2.78;;;7.80;99.90;;;;;;5062794;28;20057;-72
2023/04/11 05:36:31;;;;;;;12.90;3.47;;;7.80;99.90;;;;;;5071316;28;21427;-75
2023/04/11 05:38:57;;;;;;;11.80;3.10;;;7.80;99.90;;;;;;5079296;28;20052;-77
2023/04/11 05:41:23;;;;;;;11.63;3.78;;;7.80;99.90;;;;;;5059953;28;20047;-77
2023/04/11 05:43:49;;;;;;;10.25;3.78;;;7.80;99.90;;;;;;5061434;28;20103;-77
2023/04/11 05:46:16;;;;;;;14.65;3.25;;;7.80;99.90;;;;;;5047234;28;20591;-77
2023/04/11 05:48:42;;;;;;;9.68;2.92;;;7.80;99.90;;;;;;5056602;28;20131;-77
2023/04/11 05:51:11;;;;;;;10.02;2.80;;;7.80;99.90;;;;;;5039617;28;20046;-72
2023/04/11 05:53:36;;;;;;;11.30;2.90;;;7.90;99.90;;;;;;5061434;28;20201;-74
2023/04/11 05:56:02;;;;;;;9.15;2.47;;;7.90;99.90;;;;;;5063767;28;20134;-75
2023/04/11 05:58:31;;;;;;;9.32;2.58;;;7.90;99.90;;;;;;5079030;28;20071;-70
2023/04/11 06:00:58;;;;;;;10.23;2.88;;;7.90;99.90;;;;;;5045102;28;20620;-71
2023/04/11 06:03:25;;;;;;;12.18;3.58;;;7.90;99.90;;;;;;5059566;28;20499;-72
2023/04/11 06:05:50;;;;;;;10.30;2.80;;;7.90;99.90;;;;;;5083036;28;20516;-70
2023/04/11 06:08:16;;;;;;;7.28;2.50;;;7.90;99.90;;;;;;5063083;28;20059;-71
2023/04/11 06:10:42;;;;;;;10.52;3.00;;;7.90;99.90;;;;;;5062131;28;20130;-71
2023/04/11 06:13:08;;;;;;;11.80;3.42;;;8.00;99.90;;;;;;5063448;28;20043;-72
2023/04/11 06:15:34;;;;;;;11.18;3.08;;;8.00;99.90;;;;;;5050170;28;20043;-71
2023/04/11 06:18:02;;;;;;;13.80;3.22;;;8.00;99.90;;;;;;5077324;28;20136;-71
2023/04/11 06:20:28;;;;;;;10.57;2.90;;;8.00;99.90;;;;;;5082314;28;20184;-70
2023/04/11 06:22:55;;;;;;;11.60;2.85;;;8.00;99.90;;;;;;5064586;28;20044;-70
2023/04/11 06:25:23;;;;;;;11.40;3.05;;;8.10;99.90;;;;;;5051482;28;20114;-71
2023/04/11 06:27:49;;;;;;;11.32;2.60;;;8.10;99.90;;;;;;5064556;28;20094;-70
2023/04/11 06:30:15;;;;;;;9.13;2.92;;;8.10;99.90;;;;;;5058523;28;20052;-70
2023/04/11 06:32:41;;;;;;;10.38;3.10;;;8.20;99.90;;;;;;5065157;28;20042;-71
2023/04/11 06:35:07;;;;;;;9.48;2.92;;;8.20;99.90;;;;;;5061417;28;20494;-71
2023/04/11 06:37:32;;;;;;;8.70;2.72;;;8.20;99.90;;;;;;5078956;28;20043;-74
2023/04/11 06:39:59;;;;;;;10.98;3.25;;;8.20;99.90;;;;;;5044913;28;20044;-74
2023/04/11 06:42:25;;;;;;;8.93;2.70;;;8.30;99.90;;;;;;5082953;28;20197;-76
2023/04/11 06:44:51;;;;;;;7.82;2.38;;;8.30;99.90;;;;;;5062610;28;20052;-74
2023/04/11 06:47:17;;;;;;;18.17;3.63;;;8.30;99.90;;;;;;5064476;28;20686;-74
2023/04/11 06:49:43;;;;;;;11.02;2.97;;;8.30;99.90;;;;;;5082913;28;20051;-73
2023/04/11 06:52:09;;;;;;;11.60;2.92;;;8.40;99.90;;;;;;5065122;28;20036;-74
2023/04/11 06:54:34;;;;;;;13.07;2.63;;;8.40;99.90;;;;;;5080710;28;20556;-74
2023/04/11 06:57:01;;;;;;;9.52;2.85;;;8.40;99.90;;;;;;5045957;28;20452;-74
2023/04/11 06:59:26;;;;;;;11.85;3.63;;;8.40;99.90;;;;;;5082746;28;20044;-74
2023/04/11 07:01:52;;;;;;;8.68;3.00;;;8.40;99.90;;;;;;5077184;28;20051;-71
2023/04/11 07:04:18;;;;;;;8.50;2.33;;;8.40;99.90;;;;;;5059077;28;20043;-72
2023/04/11 07:06:44;;;;;;;9.82;3.15;;;8.50;99.90;;;;;;5062089;28;20123;-71
2023/04/11 07:09:13;;;;;;;9.52;2.78;;;8.50;99.90;;;;;;5042171;28;20036;-71
2023/04/11 07:11:39;;;;;;;10.18;3.20;;;8.50;99.90;;;;;;5060486;28;20036;-72
2023/04/11 07:14:05;;;;;;;15.35;2.95;;;8.60;99.90;;;;;;5046364;28;20116;-71
2023/04/11 07:16:31;;;;;;;9.82;2.35;;;8.60;99.90;;;;;;5060574;28;20432;-71
2023/04/11 07:18:58;;;;;;;12.45;2.53;;;8.70;99.90;;;;;;5059899;28;20410;-71
2023/04/11 07:21:26;;;;;;;9.85;2.35;;;8.60;99.90;;;;;;5059638;28;20476;-71
2023/04/11 07:23:52;;;;;;;12.63;2.40;;;8.70;99.90;;;;;;5077893;28;20400;-71
2023/04/11 07:26:18;;;;;;;9.82;2.55;;;8.70;99.90;;;;;;5058614;28;20039;-71
2023/04/11 07:28:44;;;;;;;11.35;2.30;;;8.70;99.90;;;;;;5077844;28;20035;-72
2023/04/11 07:31:11;;;;;;;12.23;2.33;;;8.70;99.90;;;;;;5061752;28;20051;-71
2023/04/11 07:33:37;;;;;;;11.25;2.65;;;8.70;99.90;;;;;;5058346;28;20100;-72
2023/04/11 07:36:04;;;;;;;14.10;3.13;;;8.60;99.90;;;;;;5061764;28;20051;-72
2023/04/11 07:38:33;;;;;;;13.13;3.28;;;8.60;99.90;;;;;;5077950;28;20043;-71
2023/04/11 07:41:01;;;;;;;11.88;2.78;;;8.60;99.90;;;;;;5076393;28;20397;-72
2023/04/11 07:43:27;;;;;;;10.35;2.40;;;8.70;99.90;;;;;;5056080;28;20048;-71
2023/04/11 07:45:55;;;;;;;14.57;3.17;;;8.70;99.90;;;;;;5079380;28;20481;-71
2023/04/11 07:48:22;;;;;;;12.27;2.95;;;8.70;99.90;;;;;;5073824;28;20237;-72
2023/04/11 07:50:48;;;;;;;11.13;2.60;;;8.70;99.90;;;;;;5060487;28;20047;-72
2023/04/11 07:53:14;;;;;;;16.33;2.88;;;8.80;99.90;;;;;;5043441;28;20044;-71
2023/04/11 07:55:40;;;;;;;9.77;2.63;;;8.80;99.90;;;;;;5074659;28;20108;-72
2023/04/11 07:58:09;;;;;;;8.93;2.08;;;8.80;99.90;;;;;;5057558;28;20043;-72
2023/04/11 08:00:35;;;;;;;14.05;3.13;;;8.90;99.90;;;;;;5062876;28;20051;-72
2023/04/11 08:03:09;;;;;;;11.93;2.17;;;8.90;99.90;;;;;;5059841;28;20147;-72
2023/04/11 08:05:35;;;;;;;10.43;2.50;;;9.00;99.90;;;;;;5057687;28;20152;-72
2023/04/11 08:08:02;;;;;;;9.23;2.33;;;9.10;99.90;;;;;;5057862;28;20418;-72
2023/04/11 08:10:28;;;;;;;12.52;3.22;;;9.10;99.90;;;;;;5059143;28;20044;-71
2023/04/11 08:12:55;;;;;;;12.70;2.63;;;9.10;99.90;;;;;;5076524;28;20044;-71
2023/04/11 08:15:21;;;;;;;11.70;2.65;;;9.00;99.90;;;;;;5075854;28;20097;-72
2023/04/11 08:17:48;;;;;;;9.07;2.47;;;9.10;99.90;;;;;;5058817;28;20040;-71
2023/04/11 08:20:15;;;;;;;10.15;2.45;;;9.10;99.90;;;;;;5061177;28;20484;-72
2023/04/11 08:22:43;;;;;;;11.82;2.83;;;9.10;99.90;;;;;;5078507;28;20577;-71
2023/04/11 08:25:10;;;;;;;9.85;2.55;;;9.20;99.90;;;;;;5061108;28;20502;-71
2023/04/11 08:27:37;;;;;;;8.13;2.10;;;9.30;99.90;;;;;;5078527;28;20104;-72
2023/04/11 08:30:04;;;;;;;12.07;2.40;;;9.50;99.90;;;;;;5074619;28;20524;-71
2023/04/11 08:32:30;;;;;;;11.15;2.88;;;9.70;99.90;;;;;;5041787;28;20547;-71
2023/04/11 08:34:56;;;;;;;12.38;2.90;;;9.80;99.90;;;;;;5063838;28;20051;-71
2023/04/11 08:37:22;;;;;;;9.38;2.30;;;10.00;99.90;;;;;;5066690;28;20131;-71
2023/04/11 08:39:48;;;;;;;10.18;2.38;;;10.00;99.90;;;;;;5083790;28;20058;-73
2023/04/11 08:42:27;;;;;;;11.43;2.00;;;10.20;99.90;;;;;;5067592;28;20044;-72
2023/04/11 08:44:59;;;;;;;9.13;2.13;;;10.30;99.90;;;;;;5082391;27;20044;-72
2023/04/11 08:47:25;;;;;;;9.88;2.78;;;10.40;99.90;;;;;;5069678;28;20562;-72
2023/04/11 08:49:52;;;;;;;9.68;2.20;;;10.30;99.90;;;;;;5064124;28;20413;-72
2023/04/11 08:52:19;;;;;;;8.52;2.22;;;10.30;99.90;;;;;;5084219;28;20054;-72
2023/04/11 08:54:45;;;;;;;10.77;2.88;;;10.50;99.90;;;;;;5064783;28;20040;-72
2023/04/11 08:57:24;;;;;;;8.85;1.85;;;10.70;99.90;;;;;;5084943;28;20082;-72
2023/04/11 08:59:54;;;;;;;10.38;2.38;;;10.80;99.90;;;;;;5082688;28;20052;-72
2023/04/11 09:02:21;;;;;;;10.57;2.05;;;10.70;99.90;;;;;;5065633;28;20085;-73
2023/04/11 09:04:47;;;;;;;9.75;2.45;;;10.50;99.90;;;;;;5066552;28;20592;-72
2023/04/11 09:07:15;;;;;;;11.20;2.30;;;10.50;99.90;;;;;;5080938;28;20105;-73
2023/04/11 09:09:42;;;;;;;10.05;2.08;;;10.40;99.90;;;;;;5083042;27;20044;-72
2023/04/11 09:12:08;;;;;;;8.60;1.70;;;10.30;99.90;;;;;;5078898;28;20090;-73
2023/04/11 09:14:34;;;;;;;7.45;1.88;;;10.10;99.90;;;;;;5082386;28;20498;-72
2023/04/11 09:17:05;;;;;;;7.18;1.92;;;9.90;99.90;;;;;;5065299;28;20086;-72
2023/04/11 09:19:33;;;;;;;10.43;2.40;;;9.70;99.90;;;;;;5098122;27;20134;-72
2023/04/11 09:22:03;;;;;;;9.07;2.20;;;9.70;99.90;;;;;;5082754;28;20107;-71
2023/04/11 09:24:29;;;;;;;;;;;9.70;99.90;;;;;;5081900;28;20506;-72
2023/04/11 09:27:18;;;;;;;8.25;1.98;;;9.70;99.90;;;;;;5067255;28;19928;-71
2023/04/11 09:29:46;;;;;;;7.35;2.42;;;9.80;99.90;;;;;;5065628;28;20052;-72
2023/04/11 09:32:31;;;;;;;6.85;1.80;;;9.90;99.90;;;;;;5064386;28;21227;-72
2023/04/11 09:35:27;;;;;;;10.05;2.47;;;10.10;99.90;;;;;;5048737;28;20472;-71
2023/04/11 09:37:55;;;;;;;11.02;2.17;;;10.10;99.90;;;;;;5058687;28;20062;-72
2023/04/11 09:40:23;;;;;;;6.28;1.88;;;10.10;99.90;;;;;;5082548;27;20047;-73
2023/04/11 09:43:03;;;;;;;8.30;2.35;;;10.00;99.90;;;;;;5095822;27;20127;-72
2023/04/11 09:45:31;;;;;;;9.10;1.67;;;9.80;99.90;;;;;;5083423;27;20055;-71
2023/04/11 09:47:59;;;;;;;8.15;1.40;;;9.50;99.90;;;;;;5080405;28;20123;-72
2023/04/11 09:50:26;;;;;;;8.15;1.80;;;9.00;99.90;;;;;;5063858;28;20545;-72
2023/04/11 09:52:54;;;;;;;8.20;1.77;;;8.60;99.90;;;;;;5080725;28;20039;-72
2023/04/11 09:55:24;;;;;;;9.88;2.58;;;8.40;99.90;;;;;;5045824;28;20402;-72
2023/04/11 09:57:52;;;;;;;9.75;2.10;;;8.20;99.90;;;;;;5062603;28;20872;-77
2023/04/11 10:00:21;;;;;;;12.20;2.50;;;8.20;99.90;;;;;;5059655;28;20048;-76
2023/04/11 10:02:49;;;;;;;10.13;2.28;;;8.20;99.90;;;;;;5094096;27;20058;-76
2023/04/11 10:05:17;;;;;;;12.10;2.90;;;8.40;99.90;;;;;;5061988;28;20130;-75
2023/04/11 10:08:04;;;;;;;13.50;2.25;;;8.60;99.90;;;;;;5057668;28;21131;-75
2023/04/11 10:10:30;;;;;;;11.20;2.70;;;8.80;99.90;;;;;;5077846;28;20044;-74
2023/04/11 10:12:56;;;;;;;10.77;2.60;;;9.00;99.90;;;;;;5062570;28;20063;-75
2023/04/11 10:15:22;;;;;;;14.20;2.78;;;9.10;99.90;;;;;;5061372;28;20147;-75
2023/04/11 10:18:10;;;;;;;9.63;2.10;;;9.20;99.90;;;;;;5079734;28;21035;-75
2023/04/11 10:20:49;;;;;;;10.82;2.53;;;9.40;99.90;;;;;;5075576;28;20597;-75
2023/04/11 10:23:16;;;;;;;9.77;2.25;;;9.60;99.90;;;;;;5062764;28;20505;-75
2023/04/11 10:25:52;;;;;;;8.90;1.90;;;9.60;99.90;;;;;;5062715;28;20073;-75
2023/04/11 10:28:30;;;;;;;11.00;2.45;;;9.60;99.90;;;;;;5060867;28;20104;-75
2023/04/11 10:31:12;;;;;;;10.98;2.03;;;9.40;99.90;;;;;;5079694;28;20048;-75
2023/04/11 10:33:58;;;;;;;11.10;2.65;;;9.20;99.90;;;;;;5045985;28;20183;-75
2023/04/11 10:36:25;;;;;;;13.57;2.63;;;9.30;99.90;;;;;;5062092;28;20139;-72
2023/04/11 10:38:51;;;;;;;12.05;2.28;;;9.60;99.90;;;;;;5061182;28;20036;-72
2023/04/11 10:41:30;;;;;;;10.05;2.63;;;9.90;99.90;;;;;;5064533;28;20391;-72
2023/04/11 10:44:23;;;;;;;13.00;2.83;;;10.20;99.90;;;;;;5057668;28;20035;-72
2023/04/11 10:46:54;;;;;;;10.43;2.08;;;10.40;99.90;;;;;;5094171;27;20847;-73
2023/04/11 10:49:35;;;;;;;;;;;10.60;99.90;;;;;;5062844;28;20051;-73
2023/04/11 10:52:17;;;;;;;10.55;2.40;;;10.70;99.90;;;;;;5058928;28;20328;-73
2023/04/11 10:54:44;;;;;;;9.90;2.15;;;10.90;99.90;;;;;;5060566;28;20055;-72
2023/04/11 10:57:11;;;;;;;11.98;2.28;;;11.10;99.90;;;;;;5091167;27;20157;-72
2023/04/11 10:59:36;;;;;;;9.23;1.90;;;11.20;99.90;;;;;;5060930;28;20516;-73
2023/04/11 11:02:02;;;;;;;8.60;1.63;;;11.30;99.90;;;;;;5057804;28;20052;-76
2023/04/11 11:04:39;;;;;;;5.97;1.48;;;11.00;99.90;;;;;;5060881;28;20105;-72
2023/04/11 11:07:06;;;;;;;8.20;2.03;;;10.30;99.90;;;;;;5078985;28;20061;-71
2023/04/11 11:09:33;;;;;;;9.52;2.17;;;9.70;99.90;;;;;;5058099;28;20837;-72
2023/04/11 11:12:09;;;;;;;10.18;2.08;;;9.40;99.90;;;;;;5062623;28;20050;-72
2023/04/11 11:14:37;;;;;;;9.38;2.25;;;9.20;99.90;;;;;;5079386;28;20131;-72
2023/04/11 11:17:03;;;;;;;11.20;2.72;;;9.20;99.90;;;;;;5059430;28;20059;-72
2023/04/11 11:19:32;;;;;;;10.63;2.30;;;9.30;99.90;;;;;;5077130;28;20056;-71
2023/04/11 11:22:05;;;;;;;8.75;2.55;;;9.60;99.90;;;;;;5076416;28;20048;-72
2023/04/11 11:24:31;;;;;;;10.43;2.28;;;9.80;99.90;;;;;;5061474;28;21108;-72
2023/04/11 11:26:57;;;;;;;9.90;2.45;;;9.80;99.90;;;;;;5091565;27;20508;-73
2023/04/11 11:29:34;;;;;;;7.63;1.92;;;9.60;99.90;;;;;;5063780;28;20042;-72
2023/04/11 11:32:03;;;;;;;7.60;1.50;;;9.50;99.90;;;;;;5076225;28;20048;-72
2023/04/11 11:34:34;;;;;;;7.20;1.67;;;9.40;99.90;;;;;;5095123;27;20116;-72
2023/04/11 11:37:03;;;;;;;9.73;1.90;;;9.50;99.90;;;;;;5075720;28;20510;-72
2023/04/11 11:39:30;;;;;;;9.77;2.30;;;9.70;99.90;;;;;;5061394;28;20509;-72
2023/04/11 11:41:56;;;;;;;9.38;2.47;;;9.90;99.90;;;;;;5076892;28;20051;-73
2023/04/11 11:44:26;;;;;;;9.20;2.00;;;9.70;99.90;;;;;;5059367;28;20506;-72
2023/04/11 11:47:11;;;;;;;9.98;1.98;;;9.60;99.90;;;;;;5075158;28;20050;-73
2023/04/11 11:49:49;;;;;;;11.75;2.10;;;9.40;99.90;;;;;;5059766;28;20404;-71
2023/04/11 11:52:35;;;;;;;10.95;2.53;;;9.30;99.90;;;;;;5059909;28;20059;-72
2023/04/11 11:55:08;;;;;;;12.82;2.85;;;9.10;99.90;;;;;;5058573;28;20047;-72
2023/04/11 11:57:44;;;;;;;16.50;2.97;;;9.00;99.90;;;;;;5077131;28;20066;-71
2023/04/11 12:00:10;;;;;;;12.15;2.72;;;9.00;99.90;;;;;;5073847;28;20325;-72
2023/04/11 12:02:38;;;;;;;13.45;2.72;;;9.10;99.90;;;;;;5092724;27;20083;-72
2023/04/11 12:05:05;;;;;;;11.88;2.92;;;9.30;99.90;;;;;;5077452;28;20116;-73
2023/04/11 12:07:40;;;;;;;10.73;2.75;;;9.60;99.90;;;;;;5060868;28;20044;-72
2023/04/11 12:10:10;;;;;;;8.32;1.80;;;10.00;99.90;;;;;;5053530;28;21334;-75
2023/04/11 12:12:48;;;;;;;11.00;2.50;;;10.40;99.90;;;;;;5073965;28;20101;-72
2023/04/11 12:15:22;;;;;;;11.88;2.40;;;10.70;99.90;;;;;;5059356;28;20312;-72
2023/04/11 12:17:52;;;;;;;10.40;2.45;;;10.90;99.90;;;;;;5094473;27;20043;-72
2023/04/11 12:20:26;;;;;;;10.40;2.30;;;11.10;99.90;;;;;;5075538;28;20062;-72
2023/04/11 12:22:52;;;;;;;9.93;1.83;;;11.00;99.90;;;;;;5059847;28;20521;-73
2023/04/11 12:25:18;;;;;;;10.07;2.05;;;10.90;99.90;;;;;;5055224;28;20094;-75
2023/04/11 12:27:46;;;;;;;10.07;2.13;;;10.90;99.90;;;;;;5072256;28;20126;-75
2023/04/11 12:30:16;;;;;;;10.13;2.30;;;10.70;99.90;;;;;;5076383;28;20100;-75
2023/04/11 12:32:42;;;;;;;11.07;2.30;;;10.50;99.90;;;;;;5075181;28;20039;-74
2023/04/11 12:35:09;;;;;;;11.23;2.15;;;10.30;99.90;;;;;;5059542;28;20448;-74
2023/04/11 12:37:35;;;;;;;13.32;2.60;;;10.20;99.90;;;;;;5074181;28;20505;-74
2023/04/11 12:40:05;;;;;;;10.30;2.55;;;10.20;99.90;;;;;;5044682;28;20062;-74
2023/04/11 12:42:31;;;;;;;12.50;2.45;;;10.10;99.90;;;;;;5075716;28;20055;-74
2023/04/11 12:45:00;;;;;;;9.73;2.55;;;10.10;99.90;;;;;;5038964;28;20051;-75
2023/04/11 12:47:25;;;;;;;11.93;2.95;;;10.20;99.90;;;;;;5061313;28;20059;-75
2023/04/11 12:49:51;;;;;;;10.82;2.22;;;10.40;99.90;;;;;;5058760;28;20052;-71
2023/04/11 12:52:17;;;;;;;9.95;2.20;;;10.50;99.90;;;;;;5042092;28;20075;-71
2023/04/11 12:54:43;;;;;;;10.63;2.30;;;10.60;99.90;;;;;;5042932;28;20468;-72